sensor_id;sensor_type;location;lat;lon;timestamp;temperature;humidity
31113;DHT22;17763;48.730;9.136;2022-07-04T00:00:46;22.10;72.40
31113;DHT22;17763;48.730;9.136;2022-07-04T00:03:14;22.00;72.80
31113;DHT22;17763;48.730;9.136;2022-07-04T00:05:40;21.90;73.40
31113;DHT22;17763;48.730;9.136;2022-07-04T00:08:06;21.80;73.90
31113;DHT22;17763;48.730;9.136;2022-07-04T00:10:31;21.70;74.30
31113;DHT22;17763;48.730;9.136;2022-07-04T00:12:57;21.70;74.70
31113;DHT22;17763;48.730;9.136;2022-07-04T00:15:25;21.70;74.90
31113;DHT22;17763;48.730;9.136;2022-07-04T00:17:53;21.60;75.10
31113;DHT22;17763;48.730;9.136;2022-07-04T00:20:19;21.50;75.20
31113;DHT22;17763;48.730;9.136;2022-07-04T00:22:48;21.50;75.70
31113;DHT22;17763;48.730;9.136;2022-07-04T00:25:13;21.50;75.90
31113;DHT22;17763;48.730;9.136;2022-07-04T00:27:39;21.50;75.90
31113;DHT22;17763;48.730;9.136;2022-07-04T00:30:05;21.50;76.40
31113;DHT22;17763;48.730;9.136;2022-07-04T00:32:31;21.50;76.40
31113;DHT22;17763;48.730;9.136;2022-07-04T00:34:57;21.50;76.80
31113;DHT22;17763;48.730;9.136;2022-07-04T00:37:22;21.50;76.60
31113;DHT22;17763;48.730;9.136;2022-07-04T00:39:48;21.50;76.30
31113;DHT22;17763;48.730;9.136;2022-07-04T00:42:14;21.50;76.00
31113;DHT22;17763;48.730;9.136;2022-07-04T00:44:40;21.40;76.20
31113;DHT22;17763;48.730;9.136;2022-07-04T00:47:06;21.40;76.10
31113;DHT22;17763;48.730;9.136;2022-07-04T00:49:32;21.40;75.80
31113;DHT22;17763;48.730;9.136;2022-07-04T00:52:01;21.40;76.20
31113;DHT22;17763;48.730;9.136;2022-07-04T00:54:30;21.30;76.20
31113;DHT22;17763;48.730;9.136;2022-07-04T00:56:56;21.30;76.40
31113;DHT22;17763;48.730;9.136;2022-07-04T00:59:22;21.30;76.40
31113;DHT22;17763;48.730;9.136;2022-07-04T01:01:49;21.20;76.50
31113;DHT22;17763;48.730;9.136;2022-07-04T01:04:15;21.20;76.70
31113;DHT22;17763;48.730;9.136;2022-07-04T01:06:42;21.20;77.10
31113;DHT22;17763;48.730;9.136;2022-07-04T01:09:08;21.20;77.30
31113;DHT22;17763;48.730;9.136;2022-07-04T01:11:34;21.20;77.40
31113;DHT22;17763;48.730;9.136;2022-07-04T01:14:00;21.20;77.50
31113;DHT22;17763;48.730;9.136;2022-07-04T01:16:26;21.10;77.60
31113;DHT22;17763;48.730;9.136;2022-07-04T01:18:53;21.10;77.80
31113;DHT22;17763;48.730;9.136;2022-07-04T01:21:19;21.10;77.80
31113;DHT22;17763;48.730;9.136;2022-07-04T01:23:45;21.10;77.90
31113;DHT22;17763;48.730;9.136;2022-07-04T01:26:11;21.10;78.00
31113;DHT22;17763;48.730;9.136;2022-07-04T01:28:38;21.10;78.00
31113;DHT22;17763;48.730;9.136;2022-07-04T01:31:04;21.10;78.10
31113;DHT22;17763;48.730;9.136;2022-07-04T01:33:31;21.10;78.50
31113;DHT22;17763;48.730;9.136;2022-07-04T01:35:56;21.10;78.60
31113;DHT22;17763;48.730;9.136;2022-07-04T01:38:22;21.00;78.90
31113;DHT22;17763;48.730;9.136;2022-07-04T01:40:50;21.00;78.90
31113;DHT22;17763;48.730;9.136;2022-07-04T01:43:16;20.90;79.50
31113;DHT22;17763;48.730;9.136;2022-07-04T01:45:41;20.90;80.00
31113;DHT22;17763;48.730;9.136;2022-07-04T01:48:09;20.80;80.20
31113;DHT22;17763;48.730;9.136;2022-07-04T01:50:35;20.80;81.00
31113;DHT22;17763;48.730;9.136;2022-07-04T01:53:03;20.70;80.90
31113;DHT22;17763;48.730;9.136;2022-07-04T01:55:34;20.70;81.50
31113;DHT22;17763;48.730;9.136;2022-07-04T01:58:02;20.60;81.20
31113;DHT22;17763;48.730;9.136;2022-07-04T02:00:28;20.60;82.00
31113;DHT22;17763;48.730;9.136;2022-07-04T02:03:15;20.60;81.80
31113;DHT22;17763;48.730;9.136;2022-07-04T02:05:42;20.50;82.10
31113;DHT22;17763;48.730;9.136;2022-07-04T02:08:10;20.50;82.20
31113;DHT22;17763;48.730;9.136;2022-07-04T02:10:36;20.50;82.30
31113;DHT22;17763;48.730;9.136;2022-07-04T02:13:02;20.50;82.60
31113;DHT22;17763;48.730;9.136;2022-07-04T02:15:31;20.40;82.90
31113;DHT22;17763;48.730;9.136;2022-07-04T02:17:58;20.50;83.10
31113;DHT22;17763;48.730;9.136;2022-07-04T02:20:26;20.50;83.30
31113;DHT22;17763;48.730;9.136;2022-07-04T02:22:53;20.50;83.50
31113;DHT22;17763;48.730;9.136;2022-07-04T02:25:18;20.50;83.60
31113;DHT22;17763;48.730;9.136;2022-07-04T02:27:44;20.40;84.00
31113;DHT22;17763;48.730;9.136;2022-07-04T02:30:10;20.40;84.30
31113;DHT22;17763;48.730;9.136;2022-07-04T02:32:37;20.40;84.30
31113;DHT22;17763;48.730;9.136;2022-07-04T02:35:05;20.40;84.80
31113;DHT22;17763;48.730;9.136;2022-07-04T02:37:31;20.30;84.80
31113;DHT22;17763;48.730;9.136;2022-07-04T02:39:57;20.30;85.00
31113;DHT22;17763;48.730;9.136;2022-07-04T02:42:25;20.30;85.30
31113;DHT22;17763;48.730;9.136;2022-07-04T02:44:53;20.30;85.30
31113;DHT22;17763;48.730;9.136;2022-07-04T02:47:21;20.30;85.60
31113;DHT22;17763;48.730;9.136;2022-07-04T02:49:47;20.20;86.00
31113;DHT22;17763;48.730;9.136;2022-07-04T02:52:12;20.20;86.50
31113;DHT22;17763;48.730;9.136;2022-07-04T02:54:40;20.20;87.10
31113;DHT22;17763;48.730;9.136;2022-07-04T02:57:07;20.10;87.60
31113;DHT22;17763;48.730;9.136;2022-07-04T02:59:33;20.10;87.90
31113;DHT22;17763;48.730;9.136;2022-07-04T03:01:58;20.10;88.20
31113;DHT22;17763;48.730;9.136;2022-07-04T03:04:24;20.10;88.50
31113;DHT22;17763;48.730;9.136;2022-07-04T03:06:50;20.10;88.80
31113;DHT22;17763;48.730;9.136;2022-07-04T03:09:15;20.10;89.00
31113;DHT22;17763;48.730;9.136;2022-07-04T03:11:41;20.10;89.60
31113;DHT22;17763;48.730;9.136;2022-07-04T03:14:07;20.00;89.80
31113;DHT22;17763;48.730;9.136;2022-07-04T03:16:37;20.00;90.00
31113;DHT22;17763;48.730;9.136;2022-07-04T03:19:03;19.90;90.30
31113;DHT22;17763;48.730;9.136;2022-07-04T03:21:29;19.80;90.80
31113;DHT22;17763;48.730;9.136;2022-07-04T03:23:55;19.80;91.00
31113;DHT22;17763;48.730;9.136;2022-07-04T03:26:27;19.80;91.60
31113;DHT22;17763;48.730;9.136;2022-07-04T03:28:57;19.80;92.00
31113;DHT22;17763;48.730;9.136;2022-07-04T03:31:23;19.80;91.80
31113;DHT22;17763;48.730;9.136;2022-07-04T03:33:49;19.90;91.60
31113;DHT22;17763;48.730;9.136;2022-07-04T03:36:15;19.80;91.70
31113;DHT22;17763;48.730;9.136;2022-07-04T03:38:41;19.80;91.70
31113;DHT22;17763;48.730;9.136;2022-07-04T03:41:09;19.80;92.00
31113;DHT22;17763;48.730;9.136;2022-07-04T03:43:35;19.80;92.10
31113;DHT22;17763;48.730;9.136;2022-07-04T03:46:00;19.70;92.10
31113;DHT22;17763;48.730;9.136;2022-07-04T03:48:26;19.70;92.20
31113;DHT22;17763;48.730;9.136;2022-07-04T03:50:52;19.60;92.30
31113;DHT22;17763;48.730;9.136;2022-07-04T03:53:20;19.60;92.50
31113;DHT22;17763;48.730;9.136;2022-07-04T03:55:46;19.60;92.50
31113;DHT22;17763;48.730;9.136;2022-07-04T03:58:15;19.60;92.60
31113;DHT22;17763;48.730;9.136;2022-07-04T04:00:40;19.50;92.80
31113;DHT22;17763;48.730;9.136;2022-07-04T04:03:07;19.50;92.70
31113;DHT22;17763;48.730;9.136;2022-07-04T04:05:56;19.50;93.00
31113;DHT22;17763;48.730;9.136;2022-07-04T04:08:22;19.50;93.10
31113;DHT22;17763;48.730;9.136;2022-07-04T04:10:49;19.50;93.20
31113;DHT22;17763;48.730;9.136;2022-07-04T04:13:14;19.50;93.30
31113;DHT22;17763;48.730;9.136;2022-07-04T04:15:42;19.50;93.20
31113;DHT22;17763;48.730;9.136;2022-07-04T04:18:10;19.50;92.80
31113;DHT22;17763;48.730;9.136;2022-07-04T04:20:39;19.50;93.00
31113;DHT22;17763;48.730;9.136;2022-07-04T04:23:05;19.50;93.20
31113;DHT22;17763;48.730;9.136;2022-07-04T04:25:30;19.50;93.10
31113;DHT22;17763;48.730;9.136;2022-07-04T04:27:56;19.60;93.10
31113;DHT22;17763;48.730;9.136;2022-07-04T04:30:22;19.60;93.20
31113;DHT22;17763;48.730;9.136;2022-07-04T04:32:50;19.60;93.20
31113;DHT22;17763;48.730;9.136;2022-07-04T04:35:20;19.60;93.10
31113;DHT22;17763;48.730;9.136;2022-07-04T04:37:46;19.60;93.30
31113;DHT22;17763;48.730;9.136;2022-07-04T04:40:14;19.60;93.40
31113;DHT22;17763;48.730;9.136;2022-07-04T04:42:42;19.60;93.70
31113;DHT22;17763;48.730;9.136;2022-07-04T04:45:08;19.60;94.00
31113;DHT22;17763;48.730;9.136;2022-07-04T04:47:37;19.60;93.80
31113;DHT22;17763;48.730;9.136;2022-07-04T04:50:02;19.60;93.70
31113;DHT22;17763;48.730;9.136;2022-07-04T04:52:28;19.50;93.60
31113;DHT22;17763;48.730;9.136;2022-07-04T04:54:54;19.50;93.90
31113;DHT22;17763;48.730;9.136;2022-07-04T04:57:20;19.40;94.00
31113;DHT22;17763;48.730;9.136;2022-07-04T04:59:48;19.40;94.20
31113;DHT22;17763;48.730;9.136;2022-07-04T05:02:13;19.40;94.20
31113;DHT22;17763;48.730;9.136;2022-07-04T05:04:44;19.40;94.40
31113;DHT22;17763;48.730;9.136;2022-07-04T05:07:09;19.40;94.10
31113;DHT22;17763;48.730;9.136;2022-07-04T05:09:35;19.30;94.20
31113;DHT22;17763;48.730;9.136;2022-07-04T05:12:01;19.30;94.20
31113;DHT22;17763;48.730;9.136;2022-07-04T05:14:28;19.30;94.30
31113;DHT22;17763;48.730;9.136;2022-07-04T05:16:56;19.30;94.40
31113;DHT22;17763;48.730;9.136;2022-07-04T05:19:22;19.30;94.50
31113;DHT22;17763;48.730;9.136;2022-07-04T05:21:50;19.40;94.50
31113;DHT22;17763;48.730;9.136;2022-07-04T05:24:16;19.30;94.40
31113;DHT22;17763;48.730;9.136;2022-07-04T05:26:42;19.30;94.30
31113;DHT22;17763;48.730;9.136;2022-07-04T05:29:07;19.40;94.30
31113;DHT22;17763;48.730;9.136;2022-07-04T05:31:33;19.30;94.30
31113;DHT22;17763;48.730;9.136;2022-07-04T05:33:59;19.30;94.30
31113;DHT22;17763;48.730;9.136;2022-07-04T05:36:26;19.30;93.90
31113;DHT22;17763;48.730;9.136;2022-07-04T05:38:56;19.30;94.00
31113;DHT22;17763;48.730;9.136;2022-07-04T05:41:22;19.30;94.30
31113;DHT22;17763;48.730;9.136;2022-07-04T05:43:48;19.30;94.50
31113;DHT22;17763;48.730;9.136;2022-07-04T05:46:14;19.30;94.80
31113;DHT22;17763;48.730;9.136;2022-07-04T05:48:42;19.30;94.80
31113;DHT22;17763;48.730;9.136;2022-07-04T05:51:10;19.30;95.10
31113;DHT22;17763;48.730;9.136;2022-07-04T05:53:35;19.30;94.90
31113;DHT22;17763;48.730;9.136;2022-07-04T05:56:01;19.30;95.10
31113;DHT22;17763;48.730;9.136;2022-07-04T05:58:27;19.30;95.40
31113;DHT22;17763;48.730;9.136;2022-07-04T06:00:55;19.30;95.50
31113;DHT22;17763;48.730;9.136;2022-07-04T06:03:21;19.40;95.30
31113;DHT22;17763;48.730;9.136;2022-07-04T06:05:49;19.50;95.30
31113;DHT22;17763;48.730;9.136;2022-07-04T06:08:15;19.50;95.30
31113;DHT22;17763;48.730;9.136;2022-07-04T06:10:43;19.50;95.50
31113;DHT22;17763;48.730;9.136;2022-07-04T06:13:09;19.50;95.30
31113;DHT22;17763;48.730;9.136;2022-07-04T06:15:37;19.50;95.40
31113;DHT22;17763;48.730;9.136;2022-07-04T06:18:02;19.50;95.60
31113;DHT22;17763;48.730;9.136;2022-07-04T06:20:29;19.50;95.60
31113;DHT22;17763;48.730;9.136;2022-07-04T06:22:55;19.50;96.10
31113;DHT22;17763;48.730;9.136;2022-07-04T06:25:23;19.50;96.30
31113;DHT22;17763;48.730;9.136;2022-07-04T06:27:51;19.50;96.00
31113;DHT22;17763;48.730;9.136;2022-07-04T06:30:18;19.50;95.90
31113;DHT22;17763;48.730;9.136;2022-07-04T06:32:55;19.60;95.80
31113;DHT22;17763;48.730;9.136;2022-07-04T06:35:26;19.70;95.50
31113;DHT22;17763;48.730;9.136;2022-07-04T06:38:14;19.70;96.10
31113;DHT22;17763;48.730;9.136;2022-07-04T06:40:43;19.70;95.90
31113;DHT22;17763;48.730;9.136;2022-07-04T06:43:09;19.70;95.80
31113;DHT22;17763;48.730;9.136;2022-07-04T06:45:35;19.80;95.70
31113;DHT22;17763;48.730;9.136;2022-07-04T06:48:04;19.90;95.10
31113;DHT22;17763;48.730;9.136;2022-07-04T06:50:31;20.00;95.30
31113;DHT22;17763;48.730;9.136;2022-07-04T06:52:59;20.00;94.80
31113;DHT22;17763;48.730;9.136;2022-07-04T06:55:27;20.00;94.60
31113;DHT22;17763;48.730;9.136;2022-07-04T06:58:02;20.00;94.60
31113;DHT22;17763;48.730;9.136;2022-07-04T07:00:28;20.10;94.50
31113;DHT22;17763;48.730;9.136;2022-07-04T07:02:58;20.10;94.90
31113;DHT22;17763;48.730;9.136;2022-07-04T07:05:27;20.00;95.10
31113;DHT22;17763;48.730;9.136;2022-07-04T07:07:53;20.00;94.80
31113;DHT22;17763;48.730;9.136;2022-07-04T07:10:20;20.10;95.30
31113;DHT22;17763;48.730;9.136;2022-07-04T07:12:46;20.20;95.50
31113;DHT22;17763;48.730;9.136;2022-07-04T07:15:12;20.30;95.00
31113;DHT22;17763;48.730;9.136;2022-07-04T07:17:39;20.40;95.60
31113;DHT22;17763;48.730;9.136;2022-07-04T07:20:08;20.40;95.10
31113;DHT22;17763;48.730;9.136;2022-07-04T07:22:34;20.40;94.00
31113;DHT22;17763;48.730;9.136;2022-07-04T07:25:02;20.30;94.00
31113;DHT22;17763;48.730;9.136;2022-07-04T07:27:28;20.20;94.20
31113;DHT22;17763;48.730;9.136;2022-07-04T07:29:53;20.30;94.70
31113;DHT22;17763;48.730;9.136;2022-07-04T07:32:21;20.40;95.00
31113;DHT22;17763;48.730;9.136;2022-07-04T07:34:52;20.40;93.90
31113;DHT22;17763;48.730;9.136;2022-07-04T07:37:17;20.40;94.30
31113;DHT22;17763;48.730;9.136;2022-07-04T07:39:45;20.40;94.10
31113;DHT22;17763;48.730;9.136;2022-07-04T07:42:11;20.50;95.40
31113;DHT22;17763;48.730;9.136;2022-07-04T07:44:37;20.50;94.00
31113;DHT22;17763;48.730;9.136;2022-07-04T07:47:03;20.60;94.30
31113;DHT22;17763;48.730;9.136;2022-07-04T07:49:29;20.60;94.40
31113;DHT22;17763;48.730;9.136;2022-07-04T07:51:54;20.70;94.00
31113;DHT22;17763;48.730;9.136;2022-07-04T07:54:21;20.80;94.10
31113;DHT22;17763;48.730;9.136;2022-07-04T07:56:49;20.80;92.90
31113;DHT22;17763;48.730;9.136;2022-07-04T07:59:15;20.80;93.20
31113;DHT22;17763;48.730;9.136;2022-07-04T08:01:43;20.90;93.00
31113;DHT22;17763;48.730;9.136;2022-07-04T08:04:09;20.90;93.20
31113;DHT22;17763;48.730;9.136;2022-07-04T08:06:56;20.90;92.90
31113;DHT22;17763;48.730;9.136;2022-07-04T08:09:21;21.00;93.30
31113;DHT22;17763;48.730;9.136;2022-07-04T08:11:49;20.90;92.90
31113;DHT22;17763;48.730;9.136;2022-07-04T08:14:17;20.90;92.60
31113;DHT22;17763;48.730;9.136;2022-07-04T08:16:43;20.90;91.70
31113;DHT22;17763;48.730;9.136;2022-07-04T08:19:11;20.90;92.40
31113;DHT22;17763;48.730;9.136;2022-07-04T08:21:36;20.90;93.30
31113;DHT22;17763;48.730;9.136;2022-07-04T08:24:02;20.90;92.50
31113;DHT22;17763;48.730;9.136;2022-07-04T08:26:28;20.90;92.40
31113;DHT22;17763;48.730;9.136;2022-07-04T08:28:56;20.90;92.20
31113;DHT22;17763;48.730;9.136;2022-07-04T08:31:23;20.90;92.40
31113;DHT22;17763;48.730;9.136;2022-07-04T08:33:51;21.00;92.50
31113;DHT22;17763;48.730;9.136;2022-07-04T08:36:16;21.00;92.50
31113;DHT22;17763;48.730;9.136;2022-07-04T08:38:42;21.00;92.20
31113;DHT22;17763;48.730;9.136;2022-07-04T08:41:08;21.00;92.70
31113;DHT22;17763;48.730;9.136;2022-07-04T08:43:33;21.00;93.20
31113;DHT22;17763;48.730;9.136;2022-07-04T08:46:03;20.90;93.00
31113;DHT22;17763;48.730;9.136;2022-07-04T08:48:33;20.90;92.90
31113;DHT22;17763;48.730;9.136;2022-07-04T08:53:37;20.90;93.10
31113;DHT22;17763;48.730;9.136;2022-07-04T08:56:08;20.90;92.60
31113;DHT22;17763;48.730;9.136;2022-07-04T08:58:58;20.90;93.30
31113;DHT22;17763;48.730;9.136;2022-07-04T09:01:24;20.90;93.40
31113;DHT22;17763;48.730;9.136;2022-07-04T09:03:50;20.90;93.60
31113;DHT22;17763;48.730;9.136;2022-07-04T09:06:19;20.80;93.80
31113;DHT22;17763;48.730;9.136;2022-07-04T09:08:45;20.90;94.30
31113;DHT22;17763;48.730;9.136;2022-07-04T09:11:14;20.90;95.00
31113;DHT22;17763;48.730;9.136;2022-07-04T09:13:42;21.00;95.10
31113;DHT22;17763;48.730;9.136;2022-07-04T09:16:07;20.90;93.80
31113;DHT22;17763;48.730;9.136;2022-07-04T09:18:35;20.90;94.20
31113;DHT22;17763;48.730;9.136;2022-07-04T09:21:04;21.00;95.10
31113;DHT22;17763;48.730;9.136;2022-07-04T09:23:38;21.10;94.00
31113;DHT22;17763;48.730;9.136;2022-07-04T09:28:42;21.10;94.10
31113;DHT22;17763;48.730;9.136;2022-07-04T09:31:15;21.10;93.80
31113;DHT22;17763;48.730;9.136;2022-07-04T09:36:19;21.10;93.40
31113;DHT22;17763;48.730;9.136;2022-07-04T09:38:45;21.00;93.20
31113;DHT22;17763;48.730;9.136;2022-07-04T09:41:13;21.20;93.80
31113;DHT22;17763;48.730;9.136;2022-07-04T09:44:00;21.30;93.50
31113;DHT22;17763;48.730;9.136;2022-07-04T09:46:26;21.30;92.90
31113;DHT22;17763;48.730;9.136;2022-07-04T09:48:54;21.50;92.60
31113;DHT22;17763;48.730;9.136;2022-07-04T09:51:41;21.60;92.10
31113;DHT22;17763;48.730;9.136;2022-07-04T09:56:52;21.80;91.80
31113;DHT22;17763;48.730;9.136;2022-07-04T09:59:19;21.90;91.70
31113;DHT22;17763;48.730;9.136;2022-07-04T10:01:47;21.90;91.60
31113;DHT22;17763;48.730;9.136;2022-07-04T10:04:13;22.00;90.60
31113;DHT22;17763;48.730;9.136;2022-07-04T10:06:43;22.10;86.90
31113;DHT22;17763;48.730;9.136;2022-07-04T10:09:16;22.00;84.90
31113;DHT22;17763;48.730;9.136;2022-07-04T10:11:48;22.10;85.40
31113;DHT22;17763;48.730;9.136;2022-07-04T10:14:14;22.10;86.20
31113;DHT22;17763;48.730;9.136;2022-07-04T10:16:41;22.20;84.10
31113;DHT22;17763;48.730;9.136;2022-07-04T10:19:08;22.20;83.20
31113;DHT22;17763;48.730;9.136;2022-07-04T10:21:38;22.20;82.00
31113;DHT22;17763;48.730;9.136;2022-07-04T10:24:04;22.20;80.90
31113;DHT22;17763;48.730;9.136;2022-07-04T10:26:30;22.20;81.30
31113;DHT22;17763;48.730;9.136;2022-07-04T10:28:56;22.20;80.80
31113;DHT22;17763;48.730;9.136;2022-07-04T10:31:24;22.20;80.50
31113;DHT22;17763;48.730;9.136;2022-07-04T10:33:51;22.20;81.10
31113;DHT22;17763;48.730;9.136;2022-07-04T10:36:22;22.20;81.30
31113;DHT22;17763;48.730;9.136;2022-07-04T10:39:01;22.30;81.50
31113;DHT22;17763;48.730;9.136;2022-07-04T10:41:32;22.30;82.40
31113;DHT22;17763;48.730;9.136;2022-07-04T10:44:04;22.40;81.10
31113;DHT22;17763;48.730;9.136;2022-07-04T10:46:48;22.50;81.30
31113;DHT22;17763;48.730;9.136;2022-07-04T10:54:14;22.60;81.10
31113;DHT22;17763;48.730;9.136;2022-07-04T10:56:49;22.70;81.90
31113;DHT22;17763;48.730;9.136;2022-07-04T10:59:22;22.80;80.80
31113;DHT22;17763;48.730;9.136;2022-07-04T11:18:12;22.80;80.20
31113;DHT22;17763;48.730;9.136;2022-07-04T11:20:45;22.90;79.80
31113;DHT22;17763;48.730;9.136;2022-07-04T11:23:17;22.90;77.80
31113;DHT22;17763;48.730;9.136;2022-07-04T11:25:48;23.00;77.50
31113;DHT22;17763;48.730;9.136;2022-07-04T11:28:26;23.00;78.20
31113;DHT22;17763;48.730;9.136;2022-07-04T11:30:53;23.10;78.40
31113;DHT22;17763;48.730;9.136;2022-07-04T11:33:22;23.00;78.50
31113;DHT22;17763;48.730;9.136;2022-07-04T11:36:17;23.00;78.50
31113;DHT22;17763;48.730;9.136;2022-07-04T11:41:20;23.10;77.50
31113;DHT22;17763;48.730;9.136;2022-07-04T11:44:08;23.20;78.40
31113;DHT22;17763;48.730;9.136;2022-07-04T11:47:15;23.20;77.10
31113;DHT22;17763;48.730;9.136;2022-07-04T11:49:46;23.20;78.50
31113;DHT22;17763;48.730;9.136;2022-07-04T11:52:12;23.30;79.80
31113;DHT22;17763;48.730;9.136;2022-07-04T11:54:40;23.30;78.60
31113;DHT22;17763;48.730;9.136;2022-07-04T12:02:34;23.50;77.40
31113;DHT22;17763;48.730;9.136;2022-07-04T12:05:01;23.60;77.60
31113;DHT22;17763;48.730;9.136;2022-07-04T12:07:32;23.60;76.50
31113;DHT22;17763;48.730;9.136;2022-07-04T12:15:20;23.70;75.10
31113;DHT22;17763;48.730;9.136;2022-07-04T12:17:53;23.70;74.30
31113;DHT22;17763;48.730;9.136;2022-07-04T12:20:21;23.70;73.80
31113;DHT22;17763;48.730;9.136;2022-07-04T12:22:54;23.80;74.20
31113;DHT22;17763;48.730;9.136;2022-07-04T12:28:03;23.90;75.30
31113;DHT22;17763;48.730;9.136;2022-07-04T12:30:31;23.90;75.00
31113;DHT22;17763;48.730;9.136;2022-07-04T12:33:02;23.90;75.00
31113;DHT22;17763;48.730;9.136;2022-07-04T12:41:12;23.90;74.40
31113;DHT22;17763;48.730;9.136;2022-07-04T12:48:51;24.10;73.70
31113;DHT22;17763;48.730;9.136;2022-07-04T12:51:24;24.10;74.00
31113;DHT22;17763;48.730;9.136;2022-07-04T12:53:53;24.20;72.70
31113;DHT22;17763;48.730;9.136;2022-07-04T12:59:14;24.20;72.60
31113;DHT22;17763;48.730;9.136;2022-07-04T13:01:42;24.20;72.50
31113;DHT22;17763;48.730;9.136;2022-07-04T13:04:09;24.20;72.50
31113;DHT22;17763;48.730;9.136;2022-07-04T13:06:37;24.30;72.00
31113;DHT22;17763;48.730;9.136;2022-07-04T13:09:04;24.30;72.10
31113;DHT22;17763;48.730;9.136;2022-07-04T13:11:32;24.30;72.60
31113;DHT22;17763;48.730;9.136;2022-07-04T13:14:19;24.30;72.80
31113;DHT22;17763;48.730;9.136;2022-07-04T13:16:45;24.40;72.80
31113;DHT22;17763;48.730;9.136;2022-07-04T13:19:10;24.40;71.30
31113;DHT22;17763;48.730;9.136;2022-07-04T13:21:36;24.40;70.80
31113;DHT22;17763;48.730;9.136;2022-07-04T13:24:02;24.40;71.50
31113;DHT22;17763;48.730;9.136;2022-07-04T13:26:28;24.40;71.00
31113;DHT22;17763;48.730;9.136;2022-07-04T13:29:00;24.40;70.00
31113;DHT22;17763;48.730;9.136;2022-07-04T13:31:31;24.40;69.40
31113;DHT22;17763;48.730;9.136;2022-07-04T13:33:59;24.40;70.00
31113;DHT22;17763;48.730;9.136;2022-07-04T13:36:25;24.50;71.70
31113;DHT22;17763;48.730;9.136;2022-07-04T13:38:51;24.40;71.80
31113;DHT22;17763;48.730;9.136;2022-07-04T13:41:16;24.50;70.30
31113;DHT22;17763;48.730;9.136;2022-07-04T13:43:44;24.40;69.60
31113;DHT22;17763;48.730;9.136;2022-07-04T13:46:12;24.40;69.70
31113;DHT22;17763;48.730;9.136;2022-07-04T13:48:40;24.30;69.10
31113;DHT22;17763;48.730;9.136;2022-07-04T13:51:06;24.40;69.00
31113;DHT22;17763;48.730;9.136;2022-07-04T13:53:34;24.40;69.80
31113;DHT22;17763;48.730;9.136;2022-07-04T13:56:02;24.50;71.40
31113;DHT22;17763;48.730;9.136;2022-07-04T13:58:31;24.50;70.80
31113;DHT22;17763;48.730;9.136;2022-07-04T14:00:57;24.50;69.30
31113;DHT22;17763;48.730;9.136;2022-07-04T14:03:25;24.60;69.60
31113;DHT22;17763;48.730;9.136;2022-07-04T14:05:50;24.50;69.20
31113;DHT22;17763;48.730;9.136;2022-07-04T14:08:18;24.50;68.90
31113;DHT22;17763;48.730;9.136;2022-07-04T14:10:44;24.40;70.00
31113;DHT22;17763;48.730;9.136;2022-07-04T14:13:10;24.40;69.90
31113;DHT22;17763;48.730;9.136;2022-07-04T14:15:40;24.30;70.40
31113;DHT22;17763;48.730;9.136;2022-07-04T14:18:06;24.30;71.80
31113;DHT22;17763;48.730;9.136;2022-07-04T14:20:41;24.40;71.00
31113;DHT22;17763;48.730;9.136;2022-07-04T14:23:09;24.40;71.00
31113;DHT22;17763;48.730;9.136;2022-07-04T14:25:40;24.50;70.20
31113;DHT22;17763;48.730;9.136;2022-07-04T14:28:06;24.50;69.40
31113;DHT22;17763;48.730;9.136;2022-07-04T14:30:31;24.60;68.50
31113;DHT22;17763;48.730;9.136;2022-07-04T14:32:57;24.60;68.80
31113;DHT22;17763;48.730;9.136;2022-07-04T14:35:23;24.80;69.60
31113;DHT22;17763;48.730;9.136;2022-07-04T14:37:48;24.90;69.00
31113;DHT22;17763;48.730;9.136;2022-07-04T14:40:20;25.00;69.10
31113;DHT22;17763;48.730;9.136;2022-07-04T14:42:45;25.10;70.60
31113;DHT22;17763;48.730;9.136;2022-07-04T14:45:13;25.10;69.90
31113;DHT22;17763;48.730;9.136;2022-07-04T14:47:39;25.10;69.10
31113;DHT22;17763;48.730;9.136;2022-07-04T14:50:09;25.20;70.80
31113;DHT22;17763;48.730;9.136;2022-07-04T14:52:37;25.30;70.80
31113;DHT22;17763;48.730;9.136;2022-07-04T14:55:03;25.30;68.80
31113;DHT22;17763;48.730;9.136;2022-07-04T14:57:31;25.30;69.60
31113;DHT22;17763;48.730;9.136;2022-07-04T14:59:57;25.30;69.30
31113;DHT22;17763;48.730;9.136;2022-07-04T15:02:22;25.10;69.20
31113;DHT22;17763;48.730;9.136;2022-07-04T15:04:48;25.00;69.10
31113;DHT22;17763;48.730;9.136;2022-07-04T15:07:14;25.00;70.40
31113;DHT22;17763;48.730;9.136;2022-07-04T15:09:42;25.00;69.90
31113;DHT22;17763;48.730;9.136;2022-07-04T15:12:12;25.10;69.30
31113;DHT22;17763;48.730;9.136;2022-07-04T15:14:40;25.10;69.60
31113;DHT22;17763;48.730;9.136;2022-07-04T15:17:05;25.20;69.60
31113;DHT22;17763;48.730;9.136;2022-07-04T15:19:33;25.30;70.20
31113;DHT22;17763;48.730;9.136;2022-07-04T15:22:21;25.50;68.80
31113;DHT22;17763;48.730;9.136;2022-07-04T15:25:10;25.60;68.20
31113;DHT22;17763;48.730;9.136;2022-07-04T15:27:36;25.40;66.80
31113;DHT22;17763;48.730;9.136;2022-07-04T15:30:04;25.20;67.00
31113;DHT22;17763;48.730;9.136;2022-07-04T15:32:32;25.00;67.00
31113;DHT22;17763;48.730;9.136;2022-07-04T15:35:00;24.90;67.70
31113;DHT22;17763;48.730;9.136;2022-07-04T15:37:30;25.00;68.20
31113;DHT22;17763;48.730;9.136;2022-07-04T15:39:58;24.90;68.00
31113;DHT22;17763;48.730;9.136;2022-07-04T15:42:24;24.90;68.90
31113;DHT22;17763;48.730;9.136;2022-07-04T15:44:49;25.00;68.70
31113;DHT22;17763;48.730;9.136;2022-07-04T15:47:15;25.10;68.30
31113;DHT22;17763;48.730;9.136;2022-07-04T15:49:42;25.30;68.80
31113;DHT22;17763;48.730;9.136;2022-07-04T15:52:08;25.40;69.20
31113;DHT22;17763;48.730;9.136;2022-07-04T15:54:34;25.40;67.40
31113;DHT22;17763;48.730;9.136;2022-07-04T15:57:02;25.30;67.80
31113;DHT22;17763;48.730;9.136;2022-07-04T15:59:28;25.30;67.70
31113;DHT22;17763;48.730;9.136;2022-07-04T16:01:53;25.20;66.50
31113;DHT22;17763;48.730;9.136;2022-07-04T16:04:21;25.10;66.20
31113;DHT22;17763;48.730;9.136;2022-07-04T16:06:47;25.00;66.40
31113;DHT22;17763;48.730;9.136;2022-07-04T16:09:13;24.80;65.90
31113;DHT22;17763;48.730;9.136;2022-07-04T16:11:41;24.70;67.00
31113;DHT22;17763;48.730;9.136;2022-07-04T16:14:09;24.80;67.40
31113;DHT22;17763;48.730;9.136;2022-07-04T16:16:37;24.70;67.50
31113;DHT22;17763;48.730;9.136;2022-07-04T16:19:03;24.60;67.60
31113;DHT22;17763;48.730;9.136;2022-07-04T16:21:29;24.60;67.00
31113;DHT22;17763;48.730;9.136;2022-07-04T16:23:57;24.50;67.10
31113;DHT22;17763;48.730;9.136;2022-07-04T16:26:23;24.50;67.00
31113;DHT22;17763;48.730;9.136;2022-07-04T16:28:51;24.50;66.20
31113;DHT22;17763;48.730;9.136;2022-07-04T16:31:19;24.40;66.30
31113;DHT22;17763;48.730;9.136;2022-07-04T16:33:48;24.30;65.70
31113;DHT22;17763;48.730;9.136;2022-07-04T16:36:14;24.40;66.30